Terminal Aerodrome Forecast
Issued by NWS

Home | Current Version | Previous Version | Text Only | Print | Product List | Glossary On
Versions: 1 2 3 4 5 6 7 8 9 10 11 12 13 14
000
FTUS46 KEKA 021733
TAFCEC
TAF
KCEC 021733Z 0218/0318 34012G18KT P6SM SCT050
     FM022100 34016G26KT P6SM SCT030 SCT250
     FM030500 01007KT P6SM SCT200=

USA.gov is the U.S. government's official web portal to all federal, state and local government web resources and services.